首页
METAR-TAF:

METAR-TAF

机场 :

L.F.韋德國際機場

百慕大, 百慕大

纬度: 32-22N, 经度: 064-41W, 海拔: 6米

当前天气观测

该预报发布于33分钟前的19:55 UTC
风速10节,风向西转西北,在西西北之间变化
温度 30°C
湿度 70%
气压 1022 hPa
能见度10公里或以上
散云层高于2100英尺

METAR: TXKF 171955Z 29010KT 260V320 9999 SCT021 30/24 Q1022

时间: 17:28 (20:28 UTC)

预报

该预报发布于2小时和58分钟前的17:30 UTC
预报有效从17日的 18点(UTC)到 18日的 18点(UTC)
风速9节,风向西转西北
能见度10公里或以上
少量云层高于2000英尺
几率 40% :
短暂存在
从 18日的 03点(UTC)到 18日的 15点(UTC)
小阵雨
几率 30% :
短暂存在
从 18日的 06点(UTC)到 18日的 12点(UTC)
能見度: 4800
多云层高于1800英尺
阵雨

TAF: TXKF 171730Z 1718/1818 29009KT 9999 FEW020 PROB40 TEMPO 1803/1815 -SHRA PROB30 TEMPO 1806/1812 4800 SHRA BKN018

超过4000个机场的气象观测和天气预报(METAR&TAF报告)。

可查询的气象台以黄色和红色小点在地图上表示。

将鼠标移到小点上方,可查看气象台名称。

然后点击查看天气观测和预报。

如需切换地图:点击带黑十字的绿色按钮放大地图;点击带横线的绿色按钮缩小地图;或者点击绿色箭头查看邻近地区的地图。


METAR-TAF: